Time;durP1;ratioP1;P1;durP2;ratioP2;P2;SDS_P1;SDS_P2;PMS_P1;PMS_P2;Temp;Humidity;BMP_temperature;BMP_pressure;BME280_temperature;BME280_humidity;BME280_pressure;Samples;Min_cycle;Max_cycle;Signal;HPM_P1;HPM_P2
2022/08/29 00:03:07;;;;;;;11.43;5.65;;;;;;;20.10;77.74;100723.91;10572870;28;20418;-75
2022/08/29 00:08:10;;;;;;;14.15;8.15;;;;;;;;;;10581546;28;20043;-75
2022/08/29 00:13:13;;;;;;;9.60;6.43;;;;;;;19.80;78.42;100728.81;10569639;28;20052;-75
2022/08/29 00:18:17;;;;;;;13.65;7.10;;;;;;;19.73;78.25;100731.31;10581917;28;20047;-74
2022/08/29 00:23:19;;;;;;;9.95;5.55;;;;;;;19.74;79.41;100723.78;10615120;28;20036;-74
2022/08/29 00:28:22;;;;;;;10.55;6.00;;;;;;;19.61;78.68;100724.84;10603569;28;20051;-74
2022/08/29 00:33:24;;;;;;;12.38;6.75;;;;;;;19.51;79.55;100712.97;10595899;28;20525;-74
2022/08/29 00:38:26;;;;;;;7.90;4.65;;;;;;;19.44;79.90;100707.13;10585609;28;20032;-74
2022/08/29 00:43:31;;;;;;;9.10;5.70;;;;;;;19.42;80.46;100692.72;10570875;28;20400;-75
2022/08/29 00:48:35;;;;;;;10.18;5.03;;;;;;;19.39;80.71;100689.81;10564022;28;20055;-76
2022/08/29 00:53:45;;;;;;;8.60;6.68;;;;;;;19.38;81.46;100677.88;10587695;28;20036;-75
2022/08/29 00:58:52;;;;;;;13.77;7.35;;;;;;;19.42;81.99;100683.56;10587657;28;20044;-75
2022/08/29 01:03:54;;;;;;;9.20;4.93;;;;;;;19.43;82.39;100672.09;10590157;28;20482;-75
2022/08/29 01:08:57;;;;;;;8.90;5.93;;;;;;;19.43;82.78;100658.16;10568071;28;20514;-77
2022/08/29 01:14:00;;;;;;;8.18;5.18;;;;;;;19.41;82.99;100660.47;10581892;28;20062;-77
2022/08/29 01:19:09;;;;;;;12.52;6.10;;;;;;;19.39;83.50;100662.78;10560910;28;20625;-77
2022/08/29 01:24:14;;;;;;;8.43;5.07;;;;;;;19.39;83.85;100657.22;10589768;28;20043;-77
2022/08/29 01:29:16;;;;;;;10.20;6.00;;;;;;;19.35;83.79;100652.69;10578645;28;20490;-76
2022/08/29 01:34:19;;;;;;;10.00;6.03;;;;;;;19.30;83.70;100645.38;10580807;28;20147;-76
2022/08/29 01:39:25;;;;;;;9.13;5.45;;;;;;;19.20;84.01;100640.19;10597499;28;20047;-76
2022/08/29 01:44:27;;;;;;;9.80;5.68;;;;;;;19.15;83.81;100629.28;10582836;28;20044;-76
2022/08/29 01:49:35;;;;;;;9.70;5.70;;;;;;;19.16;84.21;100630.91;10578671;28;20055;-76
2022/08/29 01:54:42;;;;;;;8.25;5.20;;;;;;;19.09;83.75;100641.75;10605768;28;20040;-76
2022/08/29 01:59:44;;;;;;;7.53;4.00;;;;;;;19.10;83.50;100635.06;10579238;28;20099;-76
2022/08/29 02:04:47;;;;;;;9.25;3.72;;;;;;;19.06;83.38;100637.69;10584079;28;20552;-76
2022/08/29 02:09:51;;;;;;;13.35;5.80;;;;;;;19.01;83.61;100621.19;10588808;28;20028;-76
2022/08/29 02:14:53;;;;;;;8.05;4.35;;;;;;;18.94;83.93;100618.97;10546990;28;20039;-77
2022/08/29 02:19:55;;;;;;;5.85;3.95;;;;;;;18.93;83.65;100628.47;10559195;28;20059;-76
2022/08/29 02:24:57;;;;;;;6.25;3.47;;;;;;;18.93;83.95;100628.47;10569810;28;20063;-76
2022/08/29 02:29:59;;;;;;;6.40;4.82;;;;;;;18.99;84.18;100623.50;10592971;28;20046;-76
2022/08/29 02:35:02;;;;;;;11.10;5.63;;;;;;;19.03;83.89;100620.88;10582423;28;20047;-76
2022/08/29 02:40:05;;;;;;;9.10;4.50;;;;;;;19.05;83.89;100627.72;10573134;28;20039;-76
2022/08/29 02:45:09;;;;;;;7.28;4.00;;;;;;;19.06;84.03;100646.03;10570519;28;20490;-76
2022/08/29 02:50:12;;;;;;;6.72;3.80;;;;;;;19.05;83.55;100638.84;10557497;28;20520;-76
2022/08/29 02:55:16;;;;;;;9.73;4.05;;;;;;;19.02;83.63;100642.28;10595959;28;20036;-76
2022/08/29 03:00:23;;;;;;;11.50;5.50;;;;;;;18.93;83.92;100634.03;10562204;28;20422;-76
2022/08/29 03:05:28;;;;;;;7.50;5.07;;;;;;;18.83;84.25;100644.72;10599092;28;20508;-76
2022/08/29 03:10:30;;;;;;;8.05;4.80;;;;;;;18.85;85.22;100643.22;10582095;28;20418;-76
2022/08/29 03:15:32;;;;;;;8.52;4.43;;;;;;;18.80;85.32;100635.09;10550204;28;20488;-76
2022/08/29 03:20:36;;;;;;;11.65;4.68;;;;;;;18.82;85.57;100645.88;10587338;27;20047;-76
2022/08/29 03:25:38;;;;;;;8.13;4.88;;;;;;;18.82;85.71;100641.13;10571613;28;20502;-76
2022/08/29 03:30:41;;;;;;;6.20;3.90;;;;;;;18.81;86.32;100652.59;10594344;28;20126;-76
2022/08/29 03:35:43;;;;;;;10.75;5.82;;;;;;;18.76;86.28;100655.56;10579340;28;20032;-76
2022/08/29 03:40:46;;;;;;;6.00;3.28;;;;;;;18.71;86.50;100656.53;10593052;28;20040;-76
2022/08/29 03:45:48;;;;;;;7.63;4.55;;;;;;;18.65;86.91;100663.47;10591767;28;20071;-76
2022/08/29 03:50:50;;;;;;;5.22;3.38;;;;;;;18.65;86.81;100658.72;10576305;28;20051;-76
2022/08/29 03:55:53;;;;;;;9.23;4.28;;;;;;;18.79;85.98;100668.78;10573710;28;20036;-76
2022/08/29 04:00:55;;;;;;;5.70;3.63;;;;;;;18.86;85.29;100667.09;10575403;28;20044;-76
2022/08/29 04:05:58;;;;;;;7.65;4.28;;;;;;;18.81;84.65;100670.06;10576319;28;20516;-76
2022/08/29 04:11:00;;;;;;;9.50;4.18;;;;;;;18.96;84.25;100663.13;10583151;28;20047;-76
2022/08/29 04:16:11;;;;;;;4.30;2.97;;;;;;;19.19;83.26;100661.66;10581813;28;20422;-76
2022/08/29 04:21:14;;;;;;;6.68;4.22;;;;;;;19.40;82.09;100649.69;10589528;28;20043;-76
2022/08/29 04:26:18;;;;;;;5.07;3.63;;;;;;;19.69;80.59;100651.59;10573097;28;20047;-76
2022/08/29 04:31:21;;;;;;;4.38;2.47;;;;;;;19.95;79.19;100666.06;10595617;28;20039;-76
2022/08/29 04:36:24;;;;;;;7.70;4.75;;;;;;;20.20;77.64;100652.22;10591975;27;20052;-76
2022/08/29 04:41:26;;;;;;;10.65;4.45;;;;;;;20.42;77.32;100660.16;10569218;28;20040;-76
2022/08/29 04:46:28;;;;;;;5.38;3.75;;;;;;;20.46;76.24;100656.31;10582920;28;20052;-75
2022/08/29 04:51:33;;;;;;;6.40;4.43;;;;;;;20.74;74.83;100666.81;10591230;28;20051;-76
2022/08/29 04:56:36;;;;;;;5.45;3.58;;;;;;;21.06;74.45;100676.19;10580299;28;20501;-76
2022/08/29 05:01:39;;;;;;;7.95;4.07;;;;;;;21.34;73.53;100674.28;10562663;28;20514;-76
2022/08/29 05:06:42;;;;;;;8.30;4.10;;;;;;;21.57;72.17;100666.22;10602340;28;20044;-76
2022/08/29 05:11:44;;;;;;;13.27;4.55;;;;;;;21.90;71.52;100671.53;10575494;28;20050;-75
2022/08/29 05:16:47;;;;;;;8.88;4.82;;;;;;;22.20;68.78;100671.16;10611939;28;20032;-76
2022/08/29 05:21:55;;;;;;;6.68;3.72;;;;;;;22.48;68.95;100665.50;10574354;27;20051;-76
2022/08/29 05:26:58;;;;;;;6.18;2.53;;;;;;;22.79;67.50;100647.88;10621552;27;20125;-76
2022/08/29 05:32:00;;;;;;;6.47;3.75;;;;;;;22.99;66.30;100657.97;10599923;28;20490;-76
2022/08/29 05:37:05;;;;;;;5.20;3.45;;;;;;;23.13;64.84;100654.69;10609221;28;20536;-76
2022/08/29 05:42:09;;;;;;;5.78;3.72;;;;;;;23.35;64.01;100655.97;10566110;28;20055;-76
2022/08/29 05:47:14;;;;;;;7.68;3.08;;;;;;;23.66;62.18;100646.66;10584406;28;20051;-76
2022/08/29 05:52:19;;;;;;;7.30;3.92;;;;;;;23.75;62.19;100655.63;10571730;28;20055;-75
2022/08/29 05:57:22;;;;;;;5.72;3.80;;;;;;;23.95;61.10;100648.84;10568216;28;20040;-76
2022/08/29 06:02:24;;;;;;;5.30;3.10;;;;;;;24.03;60.83;100660.97;10568344;28;20036;-76
2022/08/29 06:07:26;;;;;;;6.82;4.18;;;;;;;24.12;60.30;100647.50;10567386;28;20059;-76
2022/08/29 06:12:28;;;;;;;6.25;3.55;;;;;;;24.09;60.78;100639.03;10565120;28;20039;-75
2022/08/29 06:17:31;;;;;;;5.32;3.25;;;;;;;24.10;60.40;100641.47;10568185;28;20055;-76
2022/08/29 06:22:34;;;;;;;6.30;3.90;;;;;;;24.37;59.81;100625.56;10569524;28;20059;-75
2022/08/29 06:27:36;;;;;;;5.18;3.15;;;;;;;24.48;59.68;100642.59;10566002;28;20059;-79
2022/08/29 06:32:38;;;;;;;8.45;3.60;;;;;;;24.35;59.09;100627.94;10568429;28;20048;-77
2022/08/29 06:37:41;;;;;;;11.55;3.83;;;;;;;24.31;60.32;100625.09;10565373;28;20533;-78
2022/08/29 06:42:43;;;;;;;5.65;3.38;;;;;;;24.53;59.89;100617.81;10567229;28;20490;-78
2022/08/29 06:47:46;;;;;;;5.10;3.13;;;;;;;24.89;59.46;100629.59;10565901;28;20052;-78
2022/08/29 06:52:48;;;;;;;9.20;3.72;;;;;;;25.47;57.14;100637.63;10566579;28;20044;-78
2022/08/29 06:57:50;;;;;;;4.57;3.15;;;;;;;25.62;58.14;100624.56;10567091;28;20506;-78
2022/08/29 07:02:53;;;;;;;5.05;3.40;;;;;;;25.88;56.80;100630.13;10568757;28;20035;-77
2022/08/29 07:07:55;;;;;;;5.40;3.88;;;;;;;25.93;56.16;100629.78;10570672;28;20052;-77
2022/08/29 07:12:58;;;;;;;8.75;3.60;;;;;;;26.22;55.63;100619.63;10571108;28;20043;-77
2022/08/29 07:18:00;;;;;;;10.25;4.40;;;;;;;26.41;54.98;100630.66;10577200;28;20422;-76
2022/08/29 07:23:02;;;;;;;8.40;3.53;;;;;;;26.64;54.00;100635.25;10589947;28;20058;-77
2022/08/29 07:28:05;;;;;;;5.43;4.10;;;;;;;26.66;53.51;100653.38;10564413;28;20043;-77
2022/08/29 07:33:07;;;;;;;5.20;3.58;;;;;;;26.43;54.25;100635.91;10534793;28;20532;-75
2022/08/29 07:38:09;;;;;;;9.50;4.10;;;;;;;26.71;53.91;100635.31;10532292;28;20041;-75
2022/08/29 07:43:11;;;;;;;3.63;2.83;;;;;;;26.81;53.37;100626.13;10555862;28;20039;-73
2022/08/29 07:48:14;;;;;;;5.60;3.13;;;;;;;26.73;53.36;100627.31;10574753;28;20048;-77
2022/08/29 07:53:17;;;;;;;5.97;3.83;;;;;;;27.14;52.88;100624.34;10563547;28;20512;-76
2022/08/29 07:58:19;;;;;;;5.30;3.30;;;;;;;27.02;52.64;100625.47;10566677;28;20126;-77
2022/08/29 08:03:21;;;;;;;7.32;3.63;;;;;;;27.18;52.01;100634.44;10568942;28;20040;-76
2022/08/29 08:08:23;;;;;;;7.65;3.78;;;;;;;26.94;52.52;100635.06;10571451;28;20051;-78
2022/08/29 08:13:27;;;;;;;4.22;3.75;;;;;;;26.47;52.81;100641.56;10568743;28;20046;-81
2022/08/29 08:18:30;;;;;;;5.53;3.97;;;;;;;26.49;53.38;100613.81;10580388;28;20082;-79
2022/08/29 08:23:32;;;;;;;5.63;3.13;;;;;;;26.61;52.95;100628.41;10574812;28;20055;-78
2022/08/29 08:28:35;;;;;;;4.30;3.83;;;;;;;26.61;52.26;100633.22;10574805;28;20047;-78
2022/08/29 08:33:43;;;;;;;9.43;4.30;;;;;;;26.59;52.95;100636.44;10574825;28;20040;-77
2022/08/29 08:38:46;;;;;;;11.38;3.42;;;;;;;26.42;52.89;100631.47;10543620;28;20084;-77
2022/08/29 08:43:52;;;;;;;4.82;3.15;;;;;;;26.42;52.85;100639.91;10589304;28;20036;-79
2022/08/29 08:48:56;;;;;;;4.53;3.13;;;;;;;26.49;52.92;100637.16;10615452;28;20050;-77
2022/08/29 08:54:02;;;;;;;6.00;3.50;;;;;;;26.43;54.03;100653.59;10567708;28;20044;-77
2022/08/29 08:59:13;;;;;;;7.60;4.33;;;;;;;26.22;54.37;100647.75;10547477;28;20059;-77
2022/08/29 09:04:25;;;;;;;4.78;3.35;;;;;;;25.60;55.13;100669.09;10545541;28;20056;-77
2022/08/29 09:09:37;;;;;;;5.57;3.95;;;;;;;25.15;56.58;100666.09;10564679;28;20040;-77
2022/08/29 09:14:57;;;;;;;6.10;4.65;;;;;;;24.86;56.75;100667.66;10573660;28;20040;-77
2022/08/29 09:20:00;;;;;;;6.32;3.30;;;;;;;24.61;58.09;100689.69;10561689;28;20044;-77
2022/08/29 09:25:05;;;;;;;8.32;4.28;;;;;;;24.14;58.63;100681.63;10572816;28;20048;-78
2022/08/29 09:30:14;;;;;;;10.65;4.47;;;;;;;23.45;60.19;100680.59;10570989;28;20051;-78
2022/08/29 09:35:23;;;;;;;4.35;3.03;;;;;;;23.07;60.88;100684.13;10573482;28;20050;-78
2022/08/29 09:41:00;;;;;;;5.32;3.33;;;;;;;22.84;61.15;100693.19;10570540;28;20442;-78
2022/08/29 09:46:04;;;;;;;8.00;3.17;;;;;;;22.67;62.63;100679.56;10572049;28;20048;-78
2022/08/29 09:51:20;;;;;;;4.95;2.88;;;;;;;22.61;62.13;100683.81;10555292;28;20414;-78
2022/08/29 09:56:24;;;;;;;;;;;;;;;22.50;62.99;100671.53;10549050;28;20055;-77
2022/08/29 10:01:27;;;;;;;8.50;2.90;;;;;;;22.27;63.13;100676.94;10570147;28;19927;-78
2022/08/29 10:06:33;;;;;;;5.03;3.10;;;;;;;22.28;63.12;100672.97;10582240;28;20063;-77
2022/08/29 10:11:53;;;;;;;6.72;3.17;;;;;;;22.28;63.66;100686.94;10578459;28;20036;-77
2022/08/29 10:18:19;;;;;;;3.90;2.90;;;;;;;22.14;63.86;100700.53;10587977;28;20043;-77
2022/08/29 10:22:41;;;;;;;6.20;2.78;;;;;;;22.04;64.25;100698.22;10557002;28;20052;-77
2022/08/29 10:27:48;;;;;;;4.18;3.15;;;;;;;21.92;64.52;100699.13;10611881;28;20383;-78
2022/08/29 10:33:10;;;;;;;6.55;3.33;;;;;;;21.92;63.65;100683.16;10577658;28;20039;-77
2022/08/29 10:38:26;;;;;;;8.05;3.22;;;;;;;21.69;64.66;100693.25;10588516;28;20127;-77
2022/08/29 10:43:35;;;;;;;9.18;4.50;;;;;;;21.60;64.66;100687.03;10604501;28;20070;-78
2022/08/29 10:49:17;;;;;;;7.05;3.38;;;;;;;21.52;64.43;100705.56;10573846;28;20052;-77
2022/08/29 10:54:53;;;;;;;4.90;2.40;;;;;;;21.43;65.50;100695.69;10510838;28;20067;-77
2022/08/29 11:00:09;;;;;;;3.60;2.90;;;;;;;21.38;65.85;100691.16;10568820;28;20032;-77
2022/08/29 11:05:21;;;;;;;5.35;3.67;;;;;;;21.40;65.54;100696.41;10584263;28;20035;-77
2022/08/29 11:10:26;;;;;;;5.00;2.90;;;;;;;21.24;66.19;100688.75;10580907;28;20044;-79
2022/08/29 11:15:41;;;;;;;2.97;2.05;;;;;;;21.19;66.16;100691.75;10568516;28;20498;-79
2022/08/29 11:21:07;;;;;;;3.50;2.55;;;;;;;21.04;66.16;100700.84;10556273;28;20044;-77
2022/08/29 11:26:21;;;;;;;4.28;3.00;;;;;;;20.93;67.10;100710.84;10551359;28;20490;-79
2022/08/29 11:31:39;;;;;;;3.00;2.25;;;;;;;21.00;66.61;100720.28;10586212;28;20071;-80
2022/08/29 11:36:59;;;;;;;2.72;2.40;;;;;;;20.80;66.83;100709.19;10565653;28;20044;-79
2022/08/29 11:42:03;;;;;;;4.13;2.95;;;;;;;20.66;66.48;100710.38;10570448;28;20047;-77
2022/08/29 11:47:31;;;;;;;4.43;2.33;;;;;;;20.47;67.32;100719.28;10572523;28;20051;-76
2022/08/29 11:52:34;;;;;;;6.07;2.60;;;;;;;20.35;67.43;100713.66;10573967;28;20048;-77
2022/08/29 11:57:44;;;;;;;5.00;2.55;;;;;;;20.16;68.05;100711.41;10554927;28;20070;-77
2022/08/29 12:02:46;;;;;;;4.55;2.28;;;;;;;20.21;68.08;100710.38;10569417;28;20055;-78
2022/08/29 12:07:54;;;;;;;3.72;2.28;;;;;;;20.25;68.52;100708.53;10586459;28;20039;-79
2022/08/29 12:13:02;;;;;;;3.30;2.40;;;;;;;20.23;67.82;100696.09;10553337;28;20521;-79
2022/08/29 12:18:12;;;;;;;7.53;1.88;;;;;;;20.20;68.33;100719.09;10585617;28;20036;-78
2022/08/29 12:23:22;;;;;;;5.85;2.45;;;;;;;20.23;68.44;100719.22;10576627;28;20039;-79
2022/08/29 12:28:44;;;;;;;6.03;2.35;;;;;;;20.27;68.39;100702.59;10564871;28;20039;-78
2022/08/29 12:34:20;;;;;;;5.88;2.65;;;;;;;20.17;68.40;100715.84;10597083;28;20533;-77
2022/08/29 12:40:00;;;;;;;2.60;1.90;;;;;;;20.05;68.72;100707.44;10569318;28;20071;-77
2022/08/29 12:45:15;;;;;;;5.20;3.00;;;;;;;20.00;69.45;100718.78;10585621;27;20040;-77
2022/08/29 12:50:33;;;;;;;5.28;2.90;;;;;;;19.85;69.26;100720.25;10571841;28;20056;-78
2022/08/29 12:55:42;;;;;;;4.28;2.72;;;;;;;19.72;69.72;100715.75;10571623;28;20506;-77
2022/08/29 13:00:51;;;;;;;8.60;3.55;;;;;;;19.71;69.77;100713.31;10568492;28;20406;-79
2022/08/29 13:06:07;;;;;;;4.88;2.47;;;;;;;19.60;69.22;100726.81;10570353;28;20589;-77
2022/08/29 13:11:11;;;;;;;4.30;2.50;;;;;;;19.54;69.25;100715.09;10570847;28;20040;-78
2022/08/29 13:16:29;;;;;;;4.88;2.75;;;;;;;19.64;69.52;100707.50;10570829;28;20040;-79
2022/08/29 13:21:32;;;;;;;3.13;2.20;;;;;;;19.66;69.28;100716.31;10551826;28;20048;-77
2022/08/29 13:26:36;;;;;;;4.03;2.70;;;;;;;19.68;68.69;100731.53;10573764;28;20055;-81
2022/08/29 13:31:38;;;;;;;5.25;2.45;;;;;;;19.70;68.40;100728.41;10590703;28;20036;-80
2022/08/29 13:36:46;;;;;;;4.15;1.88;;;;;;;19.66;68.77;100727.47;10567272;28;20036;-80
2022/08/29 13:42:00;;;;;;;;;;;;;;;19.62;68.79;100746.81;10571165;28;20036;-79
2022/08/29 13:47:30;;;;;;;4.20;2.70;;;;;;;19.53;68.63;100744.06;10566730;28;19927;-81
2022/08/29 13:52:33;;;;;;;4.90;2.33;;;;;;;19.38;68.51;100753.00;10561284;28;20639;-80
2022/08/29 13:57:38;;;;;;;1.35;1.10;;;;;;;19.28;68.71;100745.06;10567440;28;20047;-80
2022/08/29 14:02:40;;;;;;;2.38;2.00;;;;;;;19.24;68.14;100739.34;10566397;28;20044;-80
2022/08/29 14:07:44;;;;;;;2.80;1.67;;;;;;;19.22;67.88;100741.63;10570236;28;20578;-80
2022/08/29 14:12:46;;;;;;;4.32;1.70;;;;;;;19.21;67.38;100755.88;10569458;28;20036;-80
2022/08/29 14:17:49;;;;;;;5.30;1.73;;;;;;;19.20;67.69;100751.47;10569460;28;20040;-82
2022/08/29 14:22:51;;;;;;;4.07;1.55;;;;;;;19.16;67.57;100770.00;10564082;28;20036;-81
2022/08/29 14:27:53;;;;;;;3.13;1.38;;;;;;;19.13;67.88;100754.00;10565866;28;20509;-80
2022/08/29 14:32:55;;;;;;;2.45;1.27;;;;;;;19.10;67.29;100765.78;10567789;28;20517;-80
2022/08/29 14:37:59;;;;;;;1.08;0.57;;;;;;;18.98;67.39;100747.03;10544496;28;20039;-80
2022/08/29 14:43:02;;;;;;;5.60;1.50;;;;;;;18.86;67.67;100744.94;10563266;28;20048;-80
2022/08/29 14:48:05;;;;;;;1.95;1.25;;;;;;;18.73;67.88;100757.09;10568208;28;20051;-80
2022/08/29 14:53:08;;;;;;;2.20;1.13;;;;;;;18.67;68.12;100769.56;10567057;28;20040;-80
2022/08/29 14:58:11;;;;;;;1.33;1.20;;;;;;;18.65;67.96;100769.09;10565349;28;20043;-79
2022/08/29 15:03:13;;;;;;;1.88;1.00;;;;;;;18.60;68.12;100755.34;10546351;28;20040;-80
2022/08/29 15:08:15;;;;;;;1.60;1.10;;;;;;;18.64;67.87;100742.44;10555908;28;20040;-80
2022/08/29 15:13:17;;;;;;;2.67;1.17;;;;;;;18.63;67.65;100735.25;10574415;28;20039;-80
2022/08/29 15:18:20;;;;;;;1.23;0.77;;;;;;;18.67;67.67;100727.88;10577093;28;20063;-81
2022/08/29 15:23:23;;;;;;;3.25;1.08;;;;;;;18.73;67.80;100740.41;10548281;28;20035;-80
2022/08/29 15:28:26;;;;;;;3.05;1.25;;;;;;;18.71;67.74;100731.59;10574113;28;20067;-80
2022/08/29 15:33:28;;;;;;;1.73;1.23;;;;;;;18.73;67.85;100732.09;10585664;28;20703;-77
2022/08/29 15:38:30;;;;;;;2.95;1.30;;;;;;;18.75;67.48;100743.72;10578709;28;20032;-81
2022/08/29 15:43:33;;;;;;;2.60;1.25;;;;;;;18.77;67.59;100752.53;10576766;28;20502;-79
2022/08/29 15:48:36;;;;;;;1.50;0.90;;;;;;;18.78;67.17;100754.16;10575539;28;20155;-78
2022/08/29 15:53:38;;;;;;;1.60;1.10;;;;;;;18.72;67.51;100747.13;10565513;28;20043;-78
2022/08/29 15:58:42;;;;;;;3.47;1.10;;;;;;;18.73;67.43;100742.38;10571299;28;20044;-76
2022/08/29 16:03:44;;;;;;;2.83;1.10;;;;;;;18.71;67.68;100759.41;10572862;28;20059;-83
2022/08/29 16:08:46;;;;;;;2.67;0.88;;;;;;;18.68;68.10;100757.28;10570714;28;20539;-76
2022/08/29 16:13:48;;;;;;;1.35;0.77;;;;;;;18.63;68.71;100768.59;10567291;28;20537;-77
2022/08/29 16:18:50;;;;;;;1.45;0.77;;;;;;;18.55;69.07;100773.00;10572970;28;20505;-76
2022/08/29 16:23:53;;;;;;;2.97;1.38;;;;;;;18.55;69.18;100769.41;10572460;28;20043;-76
2022/08/29 16:28:55;;;;;;;2.17;0.75;;;;;;;18.61;69.45;100780.03;10574122;28;20554;-78
2022/08/29 16:33:58;;;;;;;2.17;0.88;;;;;;;18.58;69.26;100788.22;10573330;28;20055;-79
2022/08/29 16:39:01;;;;;;;0.90;0.57;;;;;;;18.46;70.03;100819.44;10572568;28;20039;-78
2022/08/29 16:44:03;;;;;;;1.35;1.00;;;;;;;18.33;70.70;100809.34;10570504;28;20049;-78
2022/08/29 16:49:06;;;;;;;1.48;0.90;;;;;;;18.26;71.33;100803.47;10568097;28;20047;-87
2022/08/29 16:54:09;;;;;;;1.02;0.63;;;;;;;18.15;72.00;100814.09;10550550;28;20356;-88
2022/08/29 16:59:12;;;;;;;1.90;0.80;;;;;;;18.02;72.62;100817.84;10575136;28;20044;-85
2022/08/29 17:04:18;;;;;;;1.50;1.10;;;;;;;17.87;72.47;100815.56;10553442;28;20043;-85
2022/08/29 17:19:27;;;;;;;0.95;0.80;;;;;;;17.58;73.70;100811.44;10577750;28;20058;-79
2022/08/29 17:24:30;;;;;;;0.50;0.50;;;;;;;17.49;74.07;100824.44;10571339;28;20514;-85
2022/08/29 17:29:32;;;;;;;2.17;1.02;;;;;;;17.40;73.75;100820.84;10567403;28;20043;-85
2022/08/29 17:34:36;;;;;;;0.75;0.60;;;;;;;17.32;74.60;100818.88;10570179;28;20086;-84
2022/08/29 17:39:39;;;;;;;1.67;1.00;;;;;;;17.30;74.54;100821.16;10570117;28;20053;-81
2022/08/29 17:44:41;;;;;;;0.82;0.80;;;;;;;17.27;74.81;100821.78;10567488;28;20494;-80
2022/08/29 17:49:43;;;;;;;3.00;1.80;;;;;;;17.30;75.13;100826.69;10569433;28;20048;-82
2022/08/29 17:54:46;;;;;;;1.63;1.00;;;;;;;17.27;75.15;100821.78;10567947;28;20055;-80
2022/08/29 17:59:48;;;;;;;1.17;0.90;;;;;;;17.14;75.78;100829.91;10570361;28;20093;-84
2022/08/29 18:04:51;;;;;;;1.33;1.02;;;;;;;17.01;76.45;100830.00;10562998;28;20108;-81
2022/08/29 18:09:53;;;;;;;2.55;1.10;;;;;;;16.84;77.18;100839.06;10573007;28;20036;-82
2022/08/29 18:14:55;;;;;;;2.10;1.10;;;;;;;16.77;77.62;100838.69;10566185;28;20051;-83
2022/08/29 18:20:00;;;;;;;1.45;0.80;;;;;;;16.62;78.61;100828.81;10600087;28;20051;-84
2022/08/29 18:25:03;;;;;;;1.27;1.05;;;;;;;16.47;78.58;100826.41;10556007;28;20410;-79
2022/08/29 18:30:07;;;;;;;1.98;1.13;;;;;;;16.34;79.01;100839.22;10568735;28;20058;-88
2022/08/29 18:35:09;;;;;;;1.20;0.93;;;;;;;16.22;79.58;100825.13;10536198;28;20053;-79
2022/08/29 18:40:12;;;;;;;1.80;1.23;;;;;;;16.18;79.26;100830.47;10572565;28;20044;-86
2022/08/29 18:45:14;;;;;;;1.67;0.98;;;;;;;16.09;80.11;100832.34;10573400;28;20035;-84
2022/08/29 18:55:40;;;;;;;0.90;0.80;;;;;;;15.96;80.57;100836.78;10579163;28;20506;-84
2022/08/29 19:00:42;;;;;;;1.65;0.70;;;;;;;15.93;80.77;100814.47;10605656;28;20798;-87
2022/08/29 19:05:47;;;;;;;1.67;0.70;;;;;;;15.90;80.60;100810.38;10596816;28;20051;-88
2022/08/29 19:10:50;;;;;;;1.23;0.90;;;;;;;15.81;80.78;100806.72;10578326;28;20537;-81
2022/08/29 19:15:56;;;;;;;3.88;1.20;;;;;;;15.81;80.76;100803.16;10571274;28;20047;-80
2022/08/29 19:21:01;;;;;;;2.15;0.98;;;;;;;15.80;81.11;100805.09;10565412;28;20419;-80
2022/08/29 19:26:08;;;;;;;2.65;1.20;;;;;;;15.82;80.84;100799.25;10579970;28;20043;-84
2022/08/29 19:31:12;;;;;;;3.55;1.27;;;;;;;15.79;80.87;100805.38;10565388;28;20510;-85
2022/08/29 19:36:16;;;;;;;1.67;0.90;;;;;;;15.83;80.82;100801.69;10557447;28;20052;-83
2022/08/29 19:41:18;;;;;;;2.47;1.05;;;;;;;15.77;80.98;100814.00;10563293;28;20032;-81
2022/08/29 19:46:22;;;;;;;2.55;0.95;;;;;;;15.70;81.15;100804.50;10576249;28;20044;-78
2022/08/29 19:51:26;;;;;;;1.42;0.95;;;;;;;15.71;81.13;100806.94;10564836;28;20059;-91
2022/08/29 19:56:30;;;;;;;1.80;1.08;;;;;;;15.66;81.47;100804.31;10549188;28;20032;-84
2022/08/29 20:01:32;;;;;;;1.30;1.05;;;;;;;15.64;81.16;100799.09;10574416;28;20055;-90
2022/08/29 20:06:35;;;;;;;3.13;0.98;;;;;;;15.57;81.62;100801.41;10567663;28;20032;-88
2022/08/29 20:11:38;;;;;;;0.90;0.70;;;;;;;15.60;81.67;100794.47;10595561;27;20047;-86
2022/08/29 20:16:40;;;;;;;3.67;0.80;;;;;;;15.63;81.68;100807.69;10572039;28;20051;-78
2022/08/29 20:21:43;;;;;;;1.70;1.15;;;;;;;15.59;82.11;100798.38;10551156;28;20139;-77
2022/08/29 20:26:48;;;;;;;1.20;1.00;;;;;;;15.62;82.09;100789.47;10573286;28;20047;-76
2022/08/29 20:31:50;;;;;;;2.20;0.88;;;;;;;15.62;82.05;100792.22;10557373;28;20051;-76
2022/08/29 20:37:08;;;;;;;1.15;0.80;;;;;;;15.62;82.12;100787.50;10566743;28;20044;-76
2022/08/29 20:42:12;;;;;;;1.35;0.70;;;;;;;15.65;82.22;100780.53;10574187;28;20052;-77
2022/08/29 20:47:16;;;;;;;1.70;0.73;;;;;;;15.68;82.30;100783.50;10570789;28;20044;-77
2022/08/29 20:52:20;;;;;;;1.20;0.68;;;;;;;15.65;82.19;100789.66;10565444;28;20043;-77
2022/08/29 20:57:23;;;;;;;2.35;1.05;;;;;;;15.64;82.23;100795.50;10575817;28;20043;-80
2022/08/29 21:07:46;;;;;;;1.98;0.95;;;;;;;15.71;81.86;100808.91;10577865;28;20047;-78
2022/08/29 21:12:48;;;;;;;1.55;0.77;;;;;;;15.75;82.23;100802.41;10578620;28;20452;-76
2022/08/29 21:17:50;;;;;;;1.30;0.90;;;;;;;15.75;82.48;100807.13;10557646;28;20453;-75
2022/08/29 21:22:53;;;;;;;1.83;0.68;;;;;;;15.77;81.92;100802.91;10571200;28;20031;-75
2022/08/29 21:27:55;;;;;;;1.58;0.85;;;;;;;15.74;82.00;100806.31;10568582;28;20051;-76
2022/08/29 21:32:57;;;;;;;1.02;0.77;;;;;;;15.70;82.14;100815.56;10564001;28;20044;-76
2022/08/29 21:38:00;;;;;;;2.15;0.90;;;;;;;15.71;81.91;100808.91;10571420;28;20421;-75
2022/08/29 21:43:03;;;;;;;0.65;0.65;;;;;;;15.70;82.11;100829.38;10571912;28;20047;-75
2022/08/29 21:48:06;;;;;;;1.42;0.80;;;;;;;15.67;81.77;100814.25;10574896;28;20039;-75
2022/08/29 21:53:13;;;;;;;0.50;0.40;;;;;;;15.63;81.87;100802.16;10585365;28;20048;-75
2022/08/29 21:58:15;;;;;;;1.13;0.73;;;;;;;15.60;81.87;100813.81;10542744;28;20050;-76
2022/08/29 22:03:17;;;;;;;0.90;0.85;;;;;;;15.55;81.84;100822.22;10553133;28;20536;-76
2022/08/29 22:08:20;;;;;;;2.38;0.88;;;;;;;15.54;82.46;100820.56;10573455;28;20032;-76
2022/08/29 22:13:22;;;;;;;2.40;0.77;;;;;;;15.50;82.21;100803.78;10572857;28;20426;-76
2022/08/29 22:18:25;;;;;;;1.45;1.20;;;;;;;15.48;82.10;100805.22;10565073;28;20043;-76
2022/08/29 22:23:28;;;;;;;1.33;1.00;;;;;;;15.47;82.45;100787.81;10566198;28;20051;-75
2022/08/29 22:28:30;;;;;;;1.00;0.75;;;;;;;15.51;81.76;100793.53;10568713;28;20048;-76
2022/08/29 22:33:32;;;;;;;1.52;0.80;;;;;;;15.51;82.05;100772.25;10571577;28;20520;-76
2022/08/29 22:38:35;;;;;;;4.57;0.95;;;;;;;15.53;81.91;100785.75;10568609;28;20040;-74
2022/08/29 22:43:37;;;;;;;0.88;0.70;;;;;;;15.50;81.76;100778.91;10574800;28;20070;-76
2022/08/29 22:48:40;;;;;;;0.77;0.77;;;;;;;15.51;81.98;100796.31;10589412;28;20054;-76
2022/08/29 22:54:33;;;;;;;1.20;0.88;;;;;;;15.47;82.42;100779.53;10553983;28;20046;-75
2022/08/29 22:59:05;;;;;;;2.30;0.80;;;;;;;15.45;82.99;100778.19;10587214;28;20040;-74
2022/08/29 23:04:09;;;;;;;1.42;0.70;;;;;;;15.42;83.00;100773.28;10552299;28;20134;-74
2022/08/29 23:09:11;;;;;;;1.27;0.90;;;;;;;15.41;82.63;100782.69;10570345;28;20047;-75
2022/08/29 23:14:14;;;;;;;0.75;0.60;;;;;;;15.38;83.03;100793.25;10567423;28;20422;-74
2022/08/29 23:19:16;;;;;;;1.65;0.82;;;;;;;15.38;83.38;100795.19;10559170;28;20040;-75
2022/08/29 23:24:19;;;;;;;1.33;0.70;;;;;;;15.36;83.02;100787.22;10574828;28;20054;-76
2022/08/29 23:29:22;;;;;;;0.93;0.70;;;;;;;15.37;83.35;100788.84;10549521;28;20044;-76
2022/08/29 23:34:24;;;;;;;0.93;0.73;;;;;;;15.35;82.96;100793.06;10565881;28;20032;-77
2022/08/29 23:39:26;;;;;;;1.08;0.90;;;;;;;15.41;83.23;100793.75;10588430;28;20039;-76
2022/08/29 23:44:28;;;;;;;2.15;1.08;;;;;;;15.41;83.56;100793.75;10554910;28;20485;-76